sensor_id;sensor_type;location;lat;lon;timestamp;temperature;humidity
24730;DHT22;12832;52.392;13.066;2022-12-07T00:01:37;25.30;30.00
24730;DHT22;12832;52.392;13.066;2022-12-07T00:04:11;25.20;30.00
24730;DHT22;12832;52.392;13.066;2022-12-07T00:06:39;25.30;30.00
24730;DHT22;12832;52.392;13.066;2022-12-07T00:09:08;25.30;30.00
24730;DHT22;12832;52.392;13.066;2022-12-07T00:11:35;25.30;30.00
24730;DHT22;12832;52.392;13.066;2022-12-07T00:14:07;25.30;30.00
24730;DHT22;12832;52.392;13.066;2022-12-07T00:16:34;25.30;30.00
24730;DHT22;12832;52.392;13.066;2022-12-07T00:19:01;25.30;30.00
24730;DHT22;12832;52.392;13.066;2022-12-07T00:21:29;25.30;30.00
24730;DHT22;12832;52.392;13.066;2022-12-07T00:23:56;25.30;30.00
24730;DHT22;12832;52.392;13.066;2022-12-07T00:26:30;25.30;30.00
24730;DHT22;12832;52.392;13.066;2022-12-07T00:28:59;25.30;30.00
24730;DHT22;12832;52.392;13.066;2022-12-07T00:31:30;25.30;30.00
24730;DHT22;12832;52.392;13.066;2022-12-07T00:33:57;25.30;30.00
24730;DHT22;12832;52.392;13.066;2022-12-07T00:36:25;25.30;30.00
24730;DHT22;12832;52.392;13.066;2022-12-07T00:38:54;25.30;30.00
24730;DHT22;12832;52.392;13.066;2022-12-07T00:41:22;25.30;30.00
24730;DHT22;12832;52.392;13.066;2022-12-07T00:43:49;25.30;30.00
24730;DHT22;12832;52.392;13.066;2022-12-07T00:46:17;25.40;30.00
24730;DHT22;12832;52.392;13.066;2022-12-07T00:48:44;25.30;30.00
24730;DHT22;12832;52.392;13.066;2022-12-07T00:51:11;25.30;30.00
24730;DHT22;12832;52.392;13.066;2022-12-07T00:53:39;25.30;30.00
24730;DHT22;12832;52.392;13.066;2022-12-07T00:56:11;25.30;30.00
24730;DHT22;12832;52.392;13.066;2022-12-07T00:58:37;25.30;30.00
24730;DHT22;12832;52.392;13.066;2022-12-07T01:01:05;25.30;30.00
24730;DHT22;12832;52.392;13.066;2022-12-07T01:03:32;25.30;30.00
24730;DHT22;12832;52.392;13.066;2022-12-07T01:05:58;25.30;30.00
24730;DHT22;12832;52.392;13.066;2022-12-07T01:08:26;25.30;30.00
24730;DHT22;12832;52.392;13.066;2022-12-07T01:11:04;25.30;30.00
24730;DHT22;12832;52.392;13.066;2022-12-07T01:13:32;25.40;30.10
24730;DHT22;12832;52.392;13.066;2022-12-07T01:16:00;25.30;30.00
24730;DHT22;12832;52.392;13.066;2022-12-07T01:18:30;25.40;30.10
24730;DHT22;12832;52.392;13.066;2022-12-07T01:21:06;25.30;30.00
24730;DHT22;12832;52.392;13.066;2022-12-07T01:23:34;25.40;30.10
24730;DHT22;12832;52.392;13.066;2022-12-07T01:26:02;25.30;30.00
24730;DHT22;12832;52.392;13.066;2022-12-07T01:28:29;25.30;30.00
24730;DHT22;12832;52.392;13.066;2022-12-07T01:30:59;25.30;30.00
24730;DHT22;12832;52.392;13.066;2022-12-07T01:33:27;25.30;30.00
24730;DHT22;12832;52.392;13.066;2022-12-07T01:35:54;25.40;30.10
24730;DHT22;12832;52.392;13.066;2022-12-07T01:38:21;25.40;30.00
24730;DHT22;12832;52.392;13.066;2022-12-07T01:40:54;25.40;30.00
24730;DHT22;12832;52.392;13.066;2022-12-07T01:43:20;25.30;30.00
24730;DHT22;12832;52.392;13.066;2022-12-07T01:45:46;25.40;30.10
24730;DHT22;12832;52.392;13.066;2022-12-07T01:48:15;25.40;30.10
24730;DHT22;12832;52.392;13.066;2022-12-07T01:50:45;25.40;30.10
24730;DHT22;12832;52.392;13.066;2022-12-07T01:53:13;25.40;30.10
24730;DHT22;12832;52.392;13.066;2022-12-07T01:55:43;25.40;30.10
24730;DHT22;12832;52.392;13.066;2022-12-07T01:58:11;25.30;30.00
24730;DHT22;12832;52.392;13.066;2022-12-07T02:00:38;25.40;30.10
24730;DHT22;12832;52.392;13.066;2022-12-07T02:03:14;25.40;30.10
24730;DHT22;12832;52.392;13.066;2022-12-07T02:05:41;25.40;30.10
24730;DHT22;12832;52.392;13.066;2022-12-07T02:08:09;25.40;30.10
24730;DHT22;12832;52.392;13.066;2022-12-07T02:10:36;25.40;30.10
24730;DHT22;12832;52.392;13.066;2022-12-07T02:13:09;25.40;30.10
24730;DHT22;12832;52.392;13.066;2022-12-07T02:21:27;25.40;30.10
24730;DHT22;12832;52.392;13.066;2022-12-07T02:32:57;25.40;30.10
24730;DHT22;12832;52.392;13.066;2022-12-07T02:38:19;25.40;30.10
24730;DHT22;12832;52.392;13.066;2022-12-07T02:43:35;25.40;30.10
24730;DHT22;12832;52.392;13.066;2022-12-07T02:46:11;25.40;30.10
24730;DHT22;12832;52.392;13.066;2022-12-07T02:48:41;25.40;30.10
24730;DHT22;12832;52.392;13.066;2022-12-07T02:51:08;25.40;30.10
24730;DHT22;12832;52.392;13.066;2022-12-07T02:53:42;25.40;30.10
24730;DHT22;12832;52.392;13.066;2022-12-07T02:59:18;25.40;30.20
24730;DHT22;12832;52.392;13.066;2022-12-07T03:07:16;25.40;30.10
24730;DHT22;12832;52.392;13.066;2022-12-07T03:10:28;25.40;30.10
24730;DHT22;12832;52.392;13.066;2022-12-07T03:13:23;25.40;30.10
24730;DHT22;12832;52.392;13.066;2022-12-07T03:16:15;25.40;30.10
24730;DHT22;12832;52.392;13.066;2022-12-07T03:19:02;25.40;30.10
24730;DHT22;12832;52.392;13.066;2022-12-07T03:21:37;25.40;30.10
24730;DHT22;12832;52.392;13.066;2022-12-07T03:24:09;25.40;30.10
24730;DHT22;12832;52.392;13.066;2022-12-07T03:26:42;25.40;30.10
24730;DHT22;12832;52.392;13.066;2022-12-07T03:29:24;25.40;30.10
24730;DHT22;12832;52.392;13.066;2022-12-07T03:32:00;25.40;30.20
24730;DHT22;12832;52.392;13.066;2022-12-07T03:34:41;25.40;30.20
24730;DHT22;12832;52.392;13.066;2022-12-07T03:37:18;25.40;30.20
24730;DHT22;12832;52.392;13.066;2022-12-07T03:42:18;25.40;30.30
24730;DHT22;12832;52.392;13.066;2022-12-07T03:44:45;25.40;30.20
24730;DHT22;12832;52.392;13.066;2022-12-07T03:47:23;25.40;30.20
24730;DHT22;12832;52.392;13.066;2022-12-07T03:50:04;25.40;30.80
24730;DHT22;12832;52.392;13.066;2022-12-07T03:52:47;25.40;30.10
24730;DHT22;12832;52.392;13.066;2022-12-07T03:55:20;25.40;30.10
24730;DHT22;12832;52.392;13.066;2022-12-07T03:57:53;25.40;30.10
24730;DHT22;12832;52.392;13.066;2022-12-07T04:00:20;25.40;30.10
24730;DHT22;12832;52.392;13.066;2022-12-07T04:02:47;25.40;30.10
24730;DHT22;12832;52.392;13.066;2022-12-07T04:05:13;25.40;30.10
24730;DHT22;12832;52.392;13.066;2022-12-07T04:07:40;25.40;30.10
24730;DHT22;12832;52.392;13.066;2022-12-07T04:10:07;25.40;30.00
24730;DHT22;12832;52.392;13.066;2022-12-07T04:12:33;25.40;30.10
24730;DHT22;12832;52.392;13.066;2022-12-07T04:14:59;25.40;30.10
24730;DHT22;12832;52.392;13.066;2022-12-07T04:17:25;25.40;30.10
24730;DHT22;12832;52.392;13.066;2022-12-07T04:19:51;25.40;30.10
24730;DHT22;12832;52.392;13.066;2022-12-07T04:22:17;25.40;30.10
24730;DHT22;12832;52.392;13.066;2022-12-07T04:24:43;25.40;30.10
24730;DHT22;12832;52.392;13.066;2022-12-07T04:27:09;25.40;30.10
24730;DHT22;12832;52.392;13.066;2022-12-07T04:29:36;25.50;30.10
24730;DHT22;12832;52.392;13.066;2022-12-07T04:32:02;25.50;30.10
24730;DHT22;12832;52.392;13.066;2022-12-07T04:34:28;25.50;30.20
24730;DHT22;12832;52.392;13.066;2022-12-07T04:36:54;25.40;30.10
24730;DHT22;12832;52.392;13.066;2022-12-07T04:39:31;25.50;30.20
24730;DHT22;12832;52.392;13.066;2022-12-07T04:41:58;25.40;30.10
24730;DHT22;12832;52.392;13.066;2022-12-07T04:44:25;25.40;30.10
24730;DHT22;12832;52.392;13.066;2022-12-07T04:46:52;25.40;30.10
24730;DHT22;12832;52.392;13.066;2022-12-07T04:49:19;25.40;30.10
24730;DHT22;12832;52.392;13.066;2022-12-07T04:51:46;25.40;30.10
24730;DHT22;12832;52.392;13.066;2022-12-07T04:54:13;25.40;30.20
24730;DHT22;12832;52.392;13.066;2022-12-07T04:56:40;25.40;30.10
24730;DHT22;12832;52.392;13.066;2022-12-07T04:59:06;25.50;30.20
24730;DHT22;12832;52.392;13.066;2022-12-07T05:01:33;25.40;30.10
24730;DHT22;12832;52.392;13.066;2022-12-07T05:03:59;25.40;30.10
24730;DHT22;12832;52.392;13.066;2022-12-07T05:06:25;25.40;30.20
24730;DHT22;12832;52.392;13.066;2022-12-07T05:08:51;25.40;30.10
24730;DHT22;12832;52.392;13.066;2022-12-07T05:11:18;25.40;30.20
24730;DHT22;12832;52.392;13.066;2022-12-07T05:14:04;25.50;30.20
24730;DHT22;12832;52.392;13.066;2022-12-07T05:16:31;25.40;30.10
24730;DHT22;12832;52.392;13.066;2022-12-07T05:18:57;25.50;30.20
24730;DHT22;12832;52.392;13.066;2022-12-07T05:21:23;25.50;30.20
24730;DHT22;12832;52.392;13.066;2022-12-07T05:23:49;25.50;30.90
24730;DHT22;12832;52.392;13.066;2022-12-07T05:26:16;25.50;30.20
24730;DHT22;12832;52.392;13.066;2022-12-07T05:28:42;25.50;30.20
24730;DHT22;12832;52.392;13.066;2022-12-07T05:31:08;25.50;30.20
24730;DHT22;12832;52.392;13.066;2022-12-07T05:33:35;25.50;30.20
24730;DHT22;12832;52.392;13.066;2022-12-07T05:36:01;25.50;30.20
24730;DHT22;12832;52.392;13.066;2022-12-07T05:38:32;25.40;30.20
24730;DHT22;12832;52.392;13.066;2022-12-07T05:41:03;25.40;30.10
24730;DHT22;12832;52.392;13.066;2022-12-07T05:43:30;25.50;30.20
24730;DHT22;12832;52.392;13.066;2022-12-07T05:45:56;25.40;30.10
24730;DHT22;12832;52.392;13.066;2022-12-07T05:48:23;25.50;30.30
24730;DHT22;12832;52.392;13.066;2022-12-07T05:50:50;25.40;30.20
24730;DHT22;12832;52.392;13.066;2022-12-07T05:53:16;25.40;30.20
24730;DHT22;12832;52.392;13.066;2022-12-07T05:55:48;25.50;30.20
24730;DHT22;12832;52.392;13.066;2022-12-07T05:58:14;25.50;30.20
24730;DHT22;12832;52.392;13.066;2022-12-07T06:00:59;25.50;30.20
24730;DHT22;12832;52.392;13.066;2022-12-07T06:03:25;25.50;30.40
24730;DHT22;12832;52.392;13.066;2022-12-07T06:05:52;25.40;30.40
24730;DHT22;12832;52.392;13.066;2022-12-07T06:08:19;25.40;30.40
24730;DHT22;12832;52.392;13.066;2022-12-07T06:10:47;25.30;30.20
24730;DHT22;12832;52.392;13.066;2022-12-07T06:13:33;25.30;30.10
24730;DHT22;12832;52.392;13.066;2022-12-07T06:15:59;25.30;30.20
24730;DHT22;12832;52.392;13.066;2022-12-07T06:18:25;25.20;30.40
24730;DHT22;12832;52.392;13.066;2022-12-07T06:20:51;25.20;30.60
24730;DHT22;12832;52.392;13.066;2022-12-07T06:23:17;25.20;30.50
24730;DHT22;12832;52.392;13.066;2022-12-07T06:25:45;25.20;30.40
24730;DHT22;12832;52.392;13.066;2022-12-07T06:28:11;25.20;30.40
24730;DHT22;12832;52.392;13.066;2022-12-07T06:30:37;25.20;30.60
24730;DHT22;12832;52.392;13.066;2022-12-07T06:33:03;25.10;30.50
24730;DHT22;12832;52.392;13.066;2022-12-07T06:35:32;25.10;30.50
24730;DHT22;12832;52.392;13.066;2022-12-07T06:37:58;25.10;30.50
24730;DHT22;12832;52.392;13.066;2022-12-07T06:40:25;25.10;30.50
24730;DHT22;12832;52.392;13.066;2022-12-07T06:42:51;25.10;30.50
24730;DHT22;12832;52.392;13.066;2022-12-07T06:45:17;25.10;30.50
24730;DHT22;12832;52.392;13.066;2022-12-07T06:47:43;25.10;30.40
24730;DHT22;12832;52.392;13.066;2022-12-07T06:50:12;25.10;30.50
24730;DHT22;12832;52.392;13.066;2022-12-07T06:52:38;25.10;30.40
24730;DHT22;12832;52.392;13.066;2022-12-07T06:55:04;25.10;30.40
24730;DHT22;12832;52.392;13.066;2022-12-07T06:57:31;25.10;30.40
24730;DHT22;12832;52.392;13.066;2022-12-07T06:59:57;25.10;30.40
24730;DHT22;12832;52.392;13.066;2022-12-07T07:02:23;25.00;30.40
24730;DHT22;12832;52.392;13.066;2022-12-07T07:04:49;25.00;30.30
24730;DHT22;12832;52.392;13.066;2022-12-07T07:07:15;25.00;30.10
24730;DHT22;12832;52.392;13.066;2022-12-07T07:09:41;25.00;30.30
24730;DHT22;12832;52.392;13.066;2022-12-07T07:12:07;25.00;29.90
24730;DHT22;12832;52.392;13.066;2022-12-07T07:14:33;25.00;29.60
24730;DHT22;12832;52.392;13.066;2022-12-07T07:16:59;24.90;29.30
24730;DHT22;12832;52.392;13.066;2022-12-07T07:19:26;24.90;29.20
24730;DHT22;12832;52.392;13.066;2022-12-07T07:21:52;24.90;29.20
24730;DHT22;12832;52.392;13.066;2022-12-07T07:24:18;24.90;29.20
24730;DHT22;12832;52.392;13.066;2022-12-07T07:26:44;24.80;29.40
24730;DHT22;12832;52.392;13.066;2022-12-07T07:29:10;24.80;29.70
24730;DHT22;12832;52.392;13.066;2022-12-07T07:31:36;24.80;29.80
24730;DHT22;12832;52.392;13.066;2022-12-07T07:34:03;24.80;30.00
24730;DHT22;12832;52.392;13.066;2022-12-07T07:36:30;24.80;30.10
24730;DHT22;12832;52.392;13.066;2022-12-07T07:38:56;24.80;30.10
24730;DHT22;12832;52.392;13.066;2022-12-07T07:41:22;24.70;30.00
24730;DHT22;12832;52.392;13.066;2022-12-07T07:43:48;24.70;30.00
24730;DHT22;12832;52.392;13.066;2022-12-07T07:46:14;24.70;30.10
24730;DHT22;12832;52.392;13.066;2022-12-07T07:48:40;24.70;30.10
24730;DHT22;12832;52.392;13.066;2022-12-07T07:51:07;24.70;30.10
24730;DHT22;12832;52.392;13.066;2022-12-07T07:53:33;24.70;30.10
24730;DHT22;12832;52.392;13.066;2022-12-07T07:55:59;24.70;30.10
24730;DHT22;12832;52.392;13.066;2022-12-07T07:58:25;24.60;30.00
24730;DHT22;12832;52.392;13.066;2022-12-07T08:00:51;24.60;30.10
24730;DHT22;12832;52.392;13.066;2022-12-07T08:03:17;24.60;30.10
24730;DHT22;12832;52.392;13.066;2022-12-07T08:05:43;24.60;30.10
24730;DHT22;12832;52.392;13.066;2022-12-07T08:08:10;24.60;30.10
24730;DHT22;12832;52.392;13.066;2022-12-07T08:10:36;24.60;30.10
24730;DHT22;12832;52.392;13.066;2022-12-07T08:13:03;24.60;30.20
24730;DHT22;12832;52.392;13.066;2022-12-07T08:15:41;24.60;30.20
24730;DHT22;12832;52.392;13.066;2022-12-07T08:18:08;24.60;30.20
24730;DHT22;12832;52.392;13.066;2022-12-07T08:20:35;24.60;30.10
24730;DHT22;12832;52.392;13.066;2022-12-07T08:23:02;24.60;30.10
24730;DHT22;12832;52.392;13.066;2022-12-07T08:25:28;24.60;30.10
24730;DHT22;12832;52.392;13.066;2022-12-07T08:27:55;24.60;30.10
24730;DHT22;12832;52.392;13.066;2022-12-07T08:30:21;24.60;30.10
24730;DHT22;12832;52.392;13.066;2022-12-07T08:32:48;24.60;30.00
24730;DHT22;12832;52.392;13.066;2022-12-07T08:35:14;24.60;30.00
24730;DHT22;12832;52.392;13.066;2022-12-07T08:37:41;24.60;30.00
24730;DHT22;12832;52.392;13.066;2022-12-07T08:40:09;24.60;30.00
24730;DHT22;12832;52.392;13.066;2022-12-07T08:42:35;24.60;30.00
24730;DHT22;12832;52.392;13.066;2022-12-07T08:45:07;24.60;30.00
24730;DHT22;12832;52.392;13.066;2022-12-07T08:47:36;24.60;29.90
24730;DHT22;12832;52.392;13.066;2022-12-07T08:50:04;24.60;29.90
24730;DHT22;12832;52.392;13.066;2022-12-07T08:52:32;24.60;29.90
24730;DHT22;12832;52.392;13.066;2022-12-07T08:55:00;24.60;29.80
24730;DHT22;12832;52.392;13.066;2022-12-07T08:57:27;24.60;29.80
24730;DHT22;12832;52.392;13.066;2022-12-07T08:59:54;24.60;29.80
24730;DHT22;12832;52.392;13.066;2022-12-07T09:02:20;24.60;29.70
24730;DHT22;12832;52.392;13.066;2022-12-07T09:04:46;24.60;29.80
24730;DHT22;12832;52.392;13.066;2022-12-07T09:07:12;24.60;29.80
24730;DHT22;12832;52.392;13.066;2022-12-07T09:09:38;24.60;29.70
24730;DHT22;12832;52.392;13.066;2022-12-07T09:12:04;24.60;29.60
24730;DHT22;12832;52.392;13.066;2022-12-07T09:14:30;24.60;29.60
24730;DHT22;12832;52.392;13.066;2022-12-07T09:17:08;24.60;29.60
24730;DHT22;12832;52.392;13.066;2022-12-07T09:19:35;24.60;29.60
24730;DHT22;12832;52.392;13.066;2022-12-07T09:22:02;24.60;29.60
24730;DHT22;12832;52.392;13.066;2022-12-07T09:24:29;24.60;29.50
24730;DHT22;12832;52.392;13.066;2022-12-07T09:26:55;24.60;29.50
24730;DHT22;12832;52.392;13.066;2022-12-07T09:29:21;24.60;29.50
24730;DHT22;12832;52.392;13.066;2022-12-07T09:31:47;24.60;29.50
24730;DHT22;12832;52.392;13.066;2022-12-07T09:34:13;24.60;29.50
24730;DHT22;12832;52.392;13.066;2022-12-07T09:36:39;24.60;30.00
24730;DHT22;12832;52.392;13.066;2022-12-07T09:39:05;24.60;29.40
24730;DHT22;12832;52.392;13.066;2022-12-07T09:41:32;24.60;29.40
24730;DHT22;12832;52.392;13.066;2022-12-07T09:44:05;24.60;29.40
24730;DHT22;12832;52.392;13.066;2022-12-07T09:46:37;24.60;29.40
24730;DHT22;12832;52.392;13.066;2022-12-07T09:49:05;24.60;29.40
24730;DHT22;12832;52.392;13.066;2022-12-07T09:51:31;24.60;29.50
24730;DHT22;12832;52.392;13.066;2022-12-07T09:53:58;24.60;29.50
24730;DHT22;12832;52.392;13.066;2022-12-07T09:56:25;24.60;29.60
24730;DHT22;12832;52.392;13.066;2022-12-07T09:59:02;24.60;29.60
24730;DHT22;12832;52.392;13.066;2022-12-07T10:01:31;24.60;29.60
24730;DHT22;12832;52.392;13.066;2022-12-07T10:04:16;24.60;29.60
24730;DHT22;12832;52.392;13.066;2022-12-07T10:06:44;24.60;29.70
24730;DHT22;12832;52.392;13.066;2022-12-07T10:09:18;24.60;29.80
24730;DHT22;12832;52.392;13.066;2022-12-07T10:12:07;24.60;29.80
24730;DHT22;12832;52.392;13.066;2022-12-07T10:14:51;24.60;29.80
24730;DHT22;12832;52.392;13.066;2022-12-07T10:17:38;24.60;29.80
24730;DHT22;12832;52.392;13.066;2022-12-07T10:20:16;24.60;29.80
24730;DHT22;12832;52.392;13.066;2022-12-07T10:25:32;24.60;29.80
24730;DHT22;12832;52.392;13.066;2022-12-07T10:30:47;24.60;29.80
24730;DHT22;12832;52.392;13.066;2022-12-07T10:33:37;24.50;29.70
24730;DHT22;12832;52.392;13.066;2022-12-07T10:39:10;24.50;29.80
24730;DHT22;12832;52.392;13.066;2022-12-07T10:41:59;24.50;29.70
24730;DHT22;12832;52.392;13.066;2022-12-07T10:44:28;24.50;29.60
24730;DHT22;12832;52.392;13.066;2022-12-07T10:52:32;24.50;29.60
24730;DHT22;12832;52.392;13.066;2022-12-07T11:03:39;24.50;29.40
24730;DHT22;12832;52.392;13.066;2022-12-07T11:06:24;24.50;29.30
24730;DHT22;12832;52.392;13.066;2022-12-07T11:09:00;24.60;29.30
24730;DHT22;12832;52.392;13.066;2022-12-07T11:11:34;24.50;29.30
24730;DHT22;12832;52.392;13.066;2022-12-07T11:14:08;24.50;29.30
24730;DHT22;12832;52.392;13.066;2022-12-07T11:19:39;24.50;29.20
24730;DHT22;12832;52.392;13.066;2022-12-07T11:22:41;24.50;29.10
24730;DHT22;12832;52.392;13.066;2022-12-07T11:25:32;24.50;29.10
24730;DHT22;12832;52.392;13.066;2022-12-07T11:30:48;24.50;29.60
24730;DHT22;12832;52.392;13.066;2022-12-07T11:33:46;24.50;29.50
24730;DHT22;12832;52.392;13.066;2022-12-07T11:36:45;24.60;29.50
24730;DHT22;12832;52.392;13.066;2022-12-07T11:39:22;24.50;29.50
24730;DHT22;12832;52.392;13.066;2022-12-07T11:41:56;24.50;29.60
24730;DHT22;12832;52.392;13.066;2022-12-07T11:47:25;24.50;29.50
24730;DHT22;12832;52.392;13.066;2022-12-07T11:50:14;24.60;29.50
24730;DHT22;12832;52.392;13.066;2022-12-07T11:52:50;24.50;29.40
24730;DHT22;12832;52.392;13.066;2022-12-07T11:58:53;24.50;29.50
24730;DHT22;12832;52.392;13.066;2022-12-07T12:06:38;24.50;29.60
24730;DHT22;12832;52.392;13.066;2022-12-07T12:09:16;24.50;29.50
24730;DHT22;12832;52.392;13.066;2022-12-07T12:21:18;24.50;29.60
24730;DHT22;12832;52.392;13.066;2022-12-07T12:24:36;24.50;29.50
24730;DHT22;12832;52.392;13.066;2022-12-07T12:26:38;24.50;29.30
24730;DHT22;12832;52.392;13.066;2022-12-07T12:29:21;24.50;29.20
24730;DHT22;12832;52.392;13.066;2022-12-07T12:32:47;24.50;29.20
24730;DHT22;12832;52.392;13.066;2022-12-07T12:34:58;24.50;29.10
24730;DHT22;12832;52.392;13.066;2022-12-07T12:42:48;24.50;29.10
24730;DHT22;12832;52.392;13.066;2022-12-07T12:45:29;24.50;29.00
24730;DHT22;12832;52.392;13.066;2022-12-07T12:48:28;24.50;29.00
24730;DHT22;12832;52.392;13.066;2022-12-07T12:54:04;24.50;29.30
24730;DHT22;12832;52.392;13.066;2022-12-07T12:56:53;24.50;29.40
24730;DHT22;12832;52.392;13.066;2022-12-07T13:01:49;24.50;29.60
24730;DHT22;12832;52.392;13.066;2022-12-07T13:04:28;24.50;29.70
24730;DHT22;12832;52.392;13.066;2022-12-07T13:06:56;24.50;29.70
24730;DHT22;12832;52.392;13.066;2022-12-07T13:09:25;24.50;29.70
24730;DHT22;12832;52.392;13.066;2022-12-07T13:12:00;24.50;29.70
24730;DHT22;12832;52.392;13.066;2022-12-07T13:14:43;24.50;29.80
24730;DHT22;12832;52.392;13.066;2022-12-07T13:20:05;24.50;29.70
24730;DHT22;12832;52.392;13.066;2022-12-07T13:22:42;24.50;29.70
24730;DHT22;12832;52.392;13.066;2022-12-07T13:25:29;24.50;29.70
24730;DHT22;12832;52.392;13.066;2022-12-07T13:28:02;24.50;29.80
24730;DHT22;12832;52.392;13.066;2022-12-07T13:30:42;24.50;29.90
24730;DHT22;12832;52.392;13.066;2022-12-07T13:33:10;24.50;29.90
24730;DHT22;12832;52.392;13.066;2022-12-07T13:35:37;24.50;29.90
24730;DHT22;12832;52.392;13.066;2022-12-07T13:38:14;24.50;29.80
24730;DHT22;12832;52.392;13.066;2022-12-07T13:40:42;24.50;29.50
24730;DHT22;12832;52.392;13.066;2022-12-07T13:43:15;24.50;29.40
24730;DHT22;12832;52.392;13.066;2022-12-07T13:45:42;24.50;29.30
24730;DHT22;12832;52.392;13.066;2022-12-07T13:48:32;24.50;29.30
24730;DHT22;12832;52.392;13.066;2022-12-07T13:50:59;24.50;29.20
24730;DHT22;12832;52.392;13.066;2022-12-07T13:53:27;24.50;29.30
24730;DHT22;12832;52.392;13.066;2022-12-07T13:55:57;24.50;29.30
24730;DHT22;12832;52.392;13.066;2022-12-07T13:58:34;24.50;29.30
24730;DHT22;12832;52.392;13.066;2022-12-07T14:01:00;24.50;29.20
24730;DHT22;12832;52.392;13.066;2022-12-07T14:03:32;24.50;29.10
24730;DHT22;12832;52.392;13.066;2022-12-07T14:06:12;24.50;29.20
24730;DHT22;12832;52.392;13.066;2022-12-07T14:08:39;24.50;29.20
24730;DHT22;12832;52.392;13.066;2022-12-07T14:11:07;24.50;29.10
24730;DHT22;12832;52.392;13.066;2022-12-07T14:13:39;24.50;29.20
24730;DHT22;12832;52.392;13.066;2022-12-07T14:16:29;24.50;29.30
24730;DHT22;12832;52.392;13.066;2022-12-07T14:18:58;24.50;29.30
24730;DHT22;12832;52.392;13.066;2022-12-07T14:21:26;24.50;29.20
24730;DHT22;12832;52.392;13.066;2022-12-07T14:24:17;24.50;29.30
24730;DHT22;12832;52.392;13.066;2022-12-07T14:26:49;24.50;29.20
24730;DHT22;12832;52.392;13.066;2022-12-07T14:31:45;24.50;29.20
24730;DHT22;12832;52.392;13.066;2022-12-07T14:34:14;24.40;29.20
24730;DHT22;12832;52.392;13.066;2022-12-07T14:36:40;24.40;29.10
24730;DHT22;12832;52.392;13.066;2022-12-07T14:39:06;24.50;29.10
24730;DHT22;12832;52.392;13.066;2022-12-07T14:41:38;24.50;29.00
24730;DHT22;12832;52.392;13.066;2022-12-07T14:44:19;24.50;29.00
24730;DHT22;12832;52.392;13.066;2022-12-07T14:46:52;24.50;28.90
24730;DHT22;12832;52.392;13.066;2022-12-07T14:49:39;24.50;28.90
24730;DHT22;12832;52.392;13.066;2022-12-07T14:52:08;24.50;29.00
24730;DHT22;12832;52.392;13.066;2022-12-07T14:54:57;24.50;29.00
24730;DHT22;12832;52.392;13.066;2022-12-07T14:57:23;24.50;29.00
24730;DHT22;12832;52.392;13.066;2022-12-07T14:59:49;24.40;28.90
24730;DHT22;12832;52.392;13.066;2022-12-07T15:02:15;24.50;28.90
24730;DHT22;12832;52.392;13.066;2022-12-07T15:04:42;24.50;28.80
24730;DHT22;12832;52.392;13.066;2022-12-07T15:07:26;24.40;28.80
24730;DHT22;12832;52.392;13.066;2022-12-07T15:09:52;24.50;28.80
24730;DHT22;12832;52.392;13.066;2022-12-07T15:12:18;24.50;28.80
24730;DHT22;12832;52.392;13.066;2022-12-07T15:14:44;24.40;28.80
24730;DHT22;12832;52.392;13.066;2022-12-07T15:17:11;24.40;28.80
24730;DHT22;12832;52.392;13.066;2022-12-07T15:19:53;24.50;28.80
24730;DHT22;12832;52.392;13.066;2022-12-07T15:22:19;24.40;28.70
24730;DHT22;12832;52.392;13.066;2022-12-07T15:24:45;24.40;28.80
24730;DHT22;12832;52.392;13.066;2022-12-07T15:27:11;24.40;28.70
24730;DHT22;12832;52.392;13.066;2022-12-07T15:29:37;24.50;28.80
24730;DHT22;12832;52.392;13.066;2022-12-07T15:32:04;24.40;28.70
24730;DHT22;12832;52.392;13.066;2022-12-07T15:34:30;24.40;28.70
24730;DHT22;12832;52.392;13.066;2022-12-07T15:37:05;24.40;28.80
24730;DHT22;12832;52.392;13.066;2022-12-07T15:39:32;24.40;28.70
24730;DHT22;12832;52.392;13.066;2022-12-07T15:41:58;24.40;29.00
24730;DHT22;12832;52.392;13.066;2022-12-07T15:44:24;24.40;29.10
24730;DHT22;12832;52.392;13.066;2022-12-07T15:47:09;24.40;29.70
24730;DHT22;12832;52.392;13.066;2022-12-07T15:49:35;24.40;29.10
24730;DHT22;12832;52.392;13.066;2022-12-07T15:52:01;24.40;28.90
24730;DHT22;12832;52.392;13.066;2022-12-07T15:54:28;24.40;28.80
24730;DHT22;12832;52.392;13.066;2022-12-07T15:56:55;24.40;28.80
24730;DHT22;12832;52.392;13.066;2022-12-07T15:59:22;24.40;28.70
24730;DHT22;12832;52.392;13.066;2022-12-07T16:01:48;24.50;28.80
24730;DHT22;12832;52.392;13.066;2022-12-07T16:04:14;24.40;28.60
24730;DHT22;12832;52.392;13.066;2022-12-07T16:06:40;24.40;29.20
24730;DHT22;12832;52.392;13.066;2022-12-07T16:09:07;24.40;29.50
24730;DHT22;12832;52.392;13.066;2022-12-07T16:11:33;24.40;29.40
24730;DHT22;12832;52.392;13.066;2022-12-07T16:14:00;24.40;29.00
24730;DHT22;12832;52.392;13.066;2022-12-07T16:16:26;24.40;28.90
24730;DHT22;12832;52.392;13.066;2022-12-07T16:18:53;24.40;28.80
24730;DHT22;12832;52.392;13.066;2022-12-07T16:21:20;24.40;28.70
24730;DHT22;12832;52.392;13.066;2022-12-07T16:23:51;24.40;28.70
24730;DHT22;12832;52.392;13.066;2022-12-07T16:26:19;24.40;28.80
24730;DHT22;12832;52.392;13.066;2022-12-07T16:28:49;24.40;28.70
24730;DHT22;12832;52.392;13.066;2022-12-07T16:31:18;24.40;28.60
24730;DHT22;12832;52.392;13.066;2022-12-07T16:33:44;24.40;28.50
24730;DHT22;12832;52.392;13.066;2022-12-07T16:36:12;24.40;28.50
24730;DHT22;12832;52.392;13.066;2022-12-07T16:38:39;24.40;28.50
24730;DHT22;12832;52.392;13.066;2022-12-07T16:41:06;24.40;28.50
24730;DHT22;12832;52.392;13.066;2022-12-07T16:43:33;24.40;28.50
24730;DHT22;12832;52.392;13.066;2022-12-07T16:45:59;24.40;28.50
24730;DHT22;12832;52.392;13.066;2022-12-07T16:48:25;24.40;28.50
24730;DHT22;12832;52.392;13.066;2022-12-07T16:50:51;24.40;28.50
24730;DHT22;12832;52.392;13.066;2022-12-07T16:53:22;24.40;28.50
24730;DHT22;12832;52.392;13.066;2022-12-07T16:55:49;24.40;28.40
24730;DHT22;12832;52.392;13.066;2022-12-07T16:58:17;24.40;28.40
24730;DHT22;12832;52.392;13.066;2022-12-07T17:00:44;24.40;28.40
24730;DHT22;12832;52.392;13.066;2022-12-07T17:03:10;24.40;28.40
24730;DHT22;12832;52.392;13.066;2022-12-07T17:05:45;24.40;28.40
24730;DHT22;12832;52.392;13.066;2022-12-07T17:08:13;24.40;28.40
24730;DHT22;12832;52.392;13.066;2022-12-07T17:10:42;24.30;28.40
24730;DHT22;12832;52.392;13.066;2022-12-07T17:13:08;24.40;28.40